createdAt,value
2018-12-04T00:01:40.659Z,8.83
2018-12-04T00:04:08.955Z,8.88
2018-12-04T00:06:37.271Z,8.90
2018-12-04T00:09:07.154Z,8.92
2018-12-04T00:11:35.453Z,8.93
2018-12-04T00:14:03.883Z,8.94
2018-12-04T00:16:32.710Z,8.94
2018-12-04T00:19:01.237Z,8.97
2018-12-04T00:21:29.721Z,8.98
2018-12-04T00:23:58.012Z,9.00
2018-12-04T00:26:26.314Z,9.01
2018-12-04T00:28:54.626Z,9.03
2018-12-04T00:31:22.996Z,9.05
2018-12-04T00:33:51.324Z,9.07
2018-12-04T00:36:19.762Z,9.08
2018-12-04T00:38:48.058Z,9.11
2018-12-04T00:41:16.365Z,9.13
2018-12-04T00:43:44.779Z,9.19
2018-12-04T00:46:13.074Z,9.24
2018-12-04T00:48:41.374Z,9.27
2018-12-04T00:51:09.705Z,9.32
2018-12-04T00:53:38.050Z,9.36
2018-12-04T00:56:06.352Z,9.35
2018-12-04T00:58:34.686Z,9.36
2018-12-04T01:01:02.988Z,9.38
2018-12-04T01:03:31.290Z,9.39
2018-12-04T01:05:59.691Z,9.38
2018-12-04T01:08:28.048Z,9.39
2018-12-04T01:10:56.349Z,9.41
2018-12-04T01:13:24.659Z,9.44
2018-12-04T01:15:53.013Z,9.47
2018-12-04T01:18:21.315Z,9.49
2018-12-04T01:20:49.634Z,9.52
2018-12-04T01:23:17.940Z,9.52
2018-12-04T01:25:46.244Z,9.53
2018-12-04T01:28:14.862Z,9.53
2018-12-04T01:30:43.143Z,9.53
2018-12-04T01:33:11.456Z,9.54
2018-12-04T01:35:39.858Z,9.54
2018-12-04T01:38:08.159Z,9.52
2018-12-04T01:40:36.460Z,9.52
2018-12-04T01:43:05.019Z,9.50
2018-12-04T01:45:33.319Z,9.49
2018-12-04T01:48:01.620Z,9.49
2018-12-04T01:50:30.055Z,9.49
2018-12-04T01:52:58.351Z,9.50
2018-12-04T01:55:26.653Z,9.51
2018-12-04T01:57:55.096Z,9.53
2018-12-04T02:00:23.455Z,9.57
2018-12-04T02:02:51.762Z,9.60
2018-12-04T02:05:20.331Z,9.63
2018-12-04T02:07:48.626Z,9.65
2018-12-04T02:10:16.945Z,9.67
2018-12-04T02:12:45.351Z,9.72
2018-12-04T02:15:14.248Z,9.75
2018-12-04T02:17:42.547Z,9.78
2018-12-04T02:20:11.000Z,9.83
2018-12-04T02:22:39.489Z,9.84
2018-12-04T02:25:07.958Z,9.82
2018-12-04T02:27:36.327Z,9.77
2018-12-04T02:30:05.035Z,9.73
2018-12-04T02:32:33.351Z,9.74
2018-12-04T02:35:01.772Z,9.78
2018-12-04T02:37:30.180Z,9.83
2018-12-04T02:39:58.479Z,9.86
2018-12-04T02:42:26.824Z,9.88
2018-12-04T02:44:55.317Z,9.90
2018-12-04T02:47:23.705Z,9.94
2018-12-04T02:49:52.066Z,9.99
2018-12-04T02:52:20.399Z,10.03
2018-12-04T02:54:48.728Z,10.07
2018-12-04T02:57:17.213Z,10.11
2018-12-04T02:59:45.580Z,10.14
2018-12-04T03:02:13.876Z,10.18
2018-12-04T03:04:42.247Z,10.21
2018-12-04T03:07:10.564Z,10.25
2018-12-04T03:09:39.199Z,10.28
2018-12-04T03:12:07.658Z,10.31
2018-12-04T03:14:35.966Z,10.33
2018-12-04T03:17:04.339Z,10.31
2018-12-04T03:19:32.725Z,10.25
2018-12-04T03:22:01.091Z,10.17
2018-12-04T03:24:29.403Z,10.11
2018-12-04T03:26:57.755Z,10.03
2018-12-04T03:29:26.077Z,9.92
2018-12-04T03:31:54.401Z,9.83
2018-12-04T03:34:22.887Z,9.72
2018-12-04T03:36:51.193Z,9.59
2018-12-04T03:39:19.544Z,9.49
2018-12-04T03:41:47.859Z,9.40
2018-12-04T03:44:16.512Z,9.34
2018-12-04T03:46:44.851Z,9.30
2018-12-04T03:49:13.253Z,9.26
2018-12-04T03:51:41.649Z,9.22
2018-12-04T03:54:09.970Z,9.16
2018-12-04T03:56:38.263Z,9.13
2018-12-04T03:59:06.592Z,9.09
2018-12-04T04:01:34.897Z,9.06
2018-12-04T04:04:03.237Z,9.02
2018-12-04T04:06:31.558Z,8.93
2018-12-04T04:08:59.855Z,8.84
2018-12-04T04:11:28.177Z,8.77
2018-12-04T04:13:56.538Z,8.76
2018-12-04T04:16:25.028Z,8.76
2018-12-04T04:18:53.360Z,8.76
2018-12-04T04:21:21.663Z,8.78
2018-12-04T04:23:49.982Z,8.76
2018-12-04T04:26:18.339Z,8.75
2018-12-04T04:28:46.717Z,8.75
2018-12-04T04:31:15.090Z,8.73
2018-12-04T04:33:43.570Z,8.71
2018-12-04T04:36:12.087Z,8.67
2018-12-04T04:38:40.586Z,8.65
2018-12-04T04:41:08.890Z,8.63
2018-12-04T04:43:37.301Z,8.60
2018-12-04T04:46:05.676Z,8.56
2018-12-04T04:48:34.253Z,8.54
2018-12-04T04:51:02.556Z,8.51
2018-12-04T04:53:30.917Z,8.48
2018-12-04T04:55:59.237Z,8.46
2018-12-04T04:58:27.536Z,8.43
2018-12-04T05:00:55.872Z,8.41
2018-12-04T05:03:24.291Z,8.39
2018-12-04T05:05:52.618Z,8.36
2018-12-04T05:08:21.225Z,8.35
2018-12-04T05:10:49.637Z,8.32
2018-12-04T05:13:18.155Z,8.30
2018-12-04T05:15:46.547Z,8.29
2018-12-04T05:18:15.316Z,8.26
2018-12-04T05:20:43.629Z,8.23
2018-12-04T05:23:11.952Z,8.21
2018-12-04T05:25:40.457Z,8.19
2018-12-04T05:28:08.752Z,8.18
2018-12-04T05:30:37.211Z,8.16
2018-12-04T05:33:05.526Z,8.15
2018-12-04T05:35:33.975Z,8.12
2018-12-04T05:38:02.377Z,8.10
2018-12-04T05:40:30.733Z,8.10
2018-12-04T05:42:59.097Z,8.10
2018-12-04T05:45:27.512Z,8.10
2018-12-04T05:47:55.818Z,8.09
2018-12-04T05:50:24.344Z,8.10
2018-12-04T05:53:10.496Z,8.09
2018-12-04T05:55:38.917Z,8.05
2018-12-04T05:58:07.212Z,8.04
2018-12-04T06:00:35.580Z,8.02
2018-12-04T06:03:03.909Z,8.03
2018-12-04T06:05:32.218Z,8.02
2018-12-04T06:08:00.535Z,8.02
2018-12-04T06:10:28.897Z,8.04
2018-12-04T06:12:57.281Z,8.04
2018-12-04T06:15:25.638Z,8.04
2018-12-04T06:17:54.024Z,8.05
2018-12-04T06:20:22.408Z,8.07
2018-12-04T06:22:50.767Z,8.07
2018-12-04T06:25:19.097Z,8.06
2018-12-04T06:27:47.440Z,8.05
2018-12-04T06:30:15.736Z,8.04
2018-12-04T06:32:44.274Z,8.03
2018-12-04T06:35:12.573Z,8.01
2018-12-04T06:37:41.062Z,7.96
2018-12-04T06:40:09.554Z,7.85
2018-12-04T06:42:38.016Z,7.73
2018-12-04T06:45:06.458Z,7.62
2018-12-04T06:47:34.767Z,7.56
2018-12-04T06:50:04.396Z,7.53
2018-12-04T06:52:32.689Z,7.53
2018-12-04T06:55:01.141Z,7.57
2018-12-04T06:57:29.463Z,7.63
2018-12-04T06:59:57.764Z,7.70
2018-12-04T07:02:26.188Z,7.76
2018-12-04T07:04:54.484Z,7.78
2018-12-04T07:07:22.836Z,7.78
2018-12-04T07:09:51.156Z,7.73
2018-12-04T07:12:19.489Z,7.60
2018-12-04T07:14:47.983Z,7.47
2018-12-04T07:17:16.295Z,7.35
2018-12-04T07:19:44.642Z,7.26
2018-12-04T07:22:12.952Z,7.23
2018-12-04T07:24:41.286Z,7.20
2018-12-04T07:27:09.783Z,7.14
2018-12-04T07:29:38.087Z,7.07
2018-12-04T07:32:06.405Z,7.03
2018-12-04T07:34:34.732Z,7.08
2018-12-04T07:37:03.084Z,7.13
2018-12-04T07:39:31.563Z,7.20
2018-12-04T07:41:59.857Z,7.43
2018-12-04T07:44:28.168Z,7.75
2018-12-04T07:46:56.484Z,7.95
2018-12-04T07:49:24.795Z,8.32
2018-12-04T07:51:53.130Z,8.54
2018-12-04T07:54:21.441Z,8.53
2018-12-04T07:56:49.852Z,8.52
2018-12-04T07:59:18.197Z,8.75
2018-12-04T08:01:46.561Z,8.82
2018-12-04T08:04:15.042Z,8.71
2018-12-04T08:06:43.355Z,8.51
2018-12-04T08:09:11.682Z,8.41
2018-12-04T08:11:40.073Z,8.43
2018-12-04T08:14:08.437Z,8.47
2018-12-04T08:16:36.943Z,8.53
2018-12-04T08:19:05.288Z,8.58
2018-12-04T08:21:33.588Z,8.54
2018-12-04T08:24:01.909Z,8.49
2018-12-04T08:26:30.276Z,8.52
2018-12-04T08:28:58.631Z,8.60
2018-12-04T08:31:26.930Z,8.61
2018-12-04T08:33:55.284Z,8.82
2018-12-04T08:36:23.658Z,8.98
2018-12-04T08:38:51.972Z,9.46
2018-12-04T08:41:20.313Z,10.00
2018-12-04T08:43:48.644Z,10.42
2018-12-04T08:46:16.965Z,10.80
2018-12-04T08:48:45.296Z,11.13
2018-12-04T08:51:13.611Z,11.51
2018-12-04T08:53:41.946Z,11.81
2018-12-04T08:56:10.256Z,12.14
2018-12-04T08:58:38.575Z,12.28
2018-12-04T09:01:06.908Z,11.99
2018-12-04T09:03:35.224Z,11.91
2018-12-04T09:06:05.610Z,12.11
2018-12-04T09:08:33.941Z,12.44
2018-12-04T09:11:02.257Z,12.84
2018-12-04T09:13:30.659Z,13.11
2018-12-04T09:15:59.037Z,13.18
2018-12-04T09:18:27.574Z,13.22
2018-12-04T09:20:55.999Z,13.21
2018-12-04T09:23:24.526Z,13.33
2018-12-04T09:25:52.966Z,13.20
2018-12-04T09:28:21.420Z,12.99
2018-12-04T09:30:49.998Z,12.80
2018-12-04T09:33:18.310Z,12.67
2018-12-04T09:35:46.700Z,12.32
2018-12-04T09:38:15.031Z,12.33
2018-12-04T09:40:43.564Z,12.19
2018-12-04T09:43:11.914Z,12.23
2018-12-04T09:45:40.284Z,12.12
2018-12-04T09:48:08.594Z,12.16
2018-12-04T09:50:36.940Z,12.30
2018-12-04T09:53:05.252Z,12.06
2018-12-04T09:55:33.690Z,11.90
2018-12-04T09:58:02.016Z,11.69
2018-12-04T10:00:30.388Z,11.51
2018-12-04T10:02:58.730Z,11.18
2018-12-04T10:05:27.039Z,10.95
2018-12-04T10:07:55.536Z,10.80
2018-12-04T10:10:23.838Z,10.56
2018-12-04T10:12:52.223Z,10.35
2018-12-04T10:15:20.673Z,10.07
2018-12-04T10:17:48.984Z,9.90
2018-12-04T10:20:18.007Z,9.77
2018-12-04T10:22:46.327Z,9.58
2018-12-04T10:25:14.652Z,9.45
2018-12-04T10:27:42.977Z,9.38
2018-12-04T10:30:11.414Z,9.37
2018-12-04T10:32:39.927Z,9.40
2018-12-04T10:35:08.297Z,9.48
2018-12-04T10:37:36.610Z,9.45
2018-12-04T10:40:06.410Z,9.37
2018-12-04T10:42:34.747Z,9.30
2018-12-04T10:45:03.130Z,9.35
2018-12-04T10:47:31.436Z,9.39
2018-12-04T10:49:59.761Z,9.33
2018-12-04T10:52:27.670Z,9.24
2018-12-04T10:54:56.162Z,9.15
2018-12-04T10:57:24.506Z,9.10
2018-12-04T10:59:52.797Z,9.00
2018-12-04T11:02:24.425Z,8.91
2018-12-04T11:04:52.736Z,8.91
2018-12-04T11:07:21.045Z,8.94
2018-12-04T11:09:49.415Z,8.98
2018-12-04T11:12:17.776Z,9.03
2018-12-04T11:14:46.174Z,9.08
2018-12-04T11:17:14.576Z,9.22
2018-12-04T11:19:43.025Z,9.34
2018-12-04T11:22:11.435Z,9.39
2018-12-04T11:24:39.738Z,9.43
2018-12-04T11:27:08.153Z,9.47
2018-12-04T11:29:36.465Z,9.55
2018-12-04T11:32:04.870Z,9.55
2018-12-04T11:34:33.185Z,9.53
2018-12-04T11:37:01.515Z,9.53
2018-12-04T11:39:29.859Z,9.57
2018-12-04T11:41:58.242Z,9.53
2018-12-04T11:44:26.564Z,9.51
2018-12-04T11:46:54.989Z,9.54
2018-12-04T11:49:23.288Z,9.59
2018-12-04T11:51:51.991Z,9.60
2018-12-04T11:54:20.291Z,9.60
2018-12-04T11:56:48.704Z,9.63
2018-12-04T11:59:17.024Z,9.61
2018-12-04T12:01:45.331Z,9.58
2018-12-04T12:04:13.648Z,9.52
2018-12-04T12:06:41.963Z,9.42
2018-12-04T12:09:10.411Z,9.28
2018-12-04T12:11:38.717Z,9.20
2018-12-04T12:14:07.185Z,9.17
2018-12-04T12:16:35.508Z,9.17
2018-12-04T12:19:03.895Z,9.27
2018-12-04T12:21:32.238Z,9.34
2018-12-04T12:24:00.550Z,9.34
2018-12-04T12:26:28.848Z,9.29
2018-12-04T12:28:57.172Z,9.29
2018-12-04T12:34:00.208Z,9.26
2018-12-04T12:36:28.604Z,9.22
2018-12-04T12:38:56.928Z,9.20
2018-12-04T12:43:59.828Z,9.29
2018-12-04T12:46:28.151Z,9.25
2018-12-04T12:48:56.457Z,9.17
2018-12-04T12:51:24.784Z,9.08
2018-12-04T12:53:53.124Z,8.96
2018-12-04T12:56:21.579Z,8.82
2018-12-04T12:58:49.967Z,8.71
2018-12-04T13:01:18.544Z,8.63
2018-12-04T13:03:47.033Z,8.53
2018-12-04T13:06:15.324Z,8.42
2018-12-04T13:08:44.505Z,8.35
2018-12-04T13:11:12.873Z,8.38
2018-12-04T13:13:41.175Z,8.39
2018-12-04T13:16:09.502Z,8.43
2018-12-04T13:18:37.909Z,8.46
2018-12-04T13:21:06.255Z,8.44
2018-12-04T13:23:34.677Z,8.40
2018-12-04T13:26:02.992Z,8.24
2018-12-04T13:28:31.308Z,7.74
2018-12-04T13:30:59.615Z,7.32
2018-12-04T13:33:28.086Z,7.14
2018-12-04T13:35:56.514Z,7.06
2018-12-04T13:38:24.827Z,6.91
2018-12-04T13:40:53.148Z,6.79
2018-12-04T13:43:21.457Z,6.66
2018-12-04T13:45:50.000Z,6.61
2018-12-04T13:48:18.385Z,6.61
2018-12-04T13:50:46.828Z,6.58
2018-12-04T13:53:15.157Z,6.59
2018-12-04T13:55:43.496Z,6.61
2018-12-04T13:58:12.076Z,6.59
2018-12-04T14:00:40.401Z,6.55
2018-12-04T14:03:08.798Z,6.52
2018-12-04T14:05:37.222Z,6.47
2018-12-04T14:08:05.648Z,6.41
2018-12-04T14:10:33.982Z,6.40
2018-12-04T14:13:02.449Z,6.37
2018-12-04T14:15:30.950Z,6.34
2018-12-04T14:17:59.266Z,6.28
2018-12-04T14:20:27.594Z,6.22
2018-12-04T14:22:56.089Z,6.19
2018-12-04T14:25:24.545Z,6.13
2018-12-04T14:27:52.879Z,6.09
2018-12-04T14:30:21.301Z,6.04
2018-12-04T14:32:49.910Z,6.00
2018-12-04T14:35:18.208Z,5.96
2018-12-04T14:37:46.519Z,5.93
2018-12-04T14:40:14.847Z,5.89
2018-12-04T14:42:43.174Z,5.88
2018-12-04T14:45:11.681Z,5.83
2018-12-04T14:47:40.310Z,5.79
2018-12-04T14:50:09.353Z,5.78
2018-12-04T14:52:37.665Z,5.79
2018-12-04T14:55:07.054Z,5.81
2018-12-04T14:57:35.464Z,5.82
2018-12-04T15:00:07.555Z,5.82
2018-12-04T15:02:36.202Z,5.85
2018-12-04T15:05:05.786Z,5.83
2018-12-04T15:07:34.186Z,5.78
2018-12-04T15:10:02.927Z,5.70
2018-12-04T15:12:31.324Z,5.61
2018-12-04T15:14:59.834Z,5.54
2018-12-04T15:17:28.264Z,5.48
2018-12-04T15:19:56.609Z,5.44
2018-12-04T15:22:25.020Z,5.40
2018-12-04T15:24:53.620Z,5.37
2018-12-04T15:27:22.108Z,5.36
2018-12-04T15:29:50.641Z,5.33
2018-12-04T15:32:19.182Z,5.29
2018-12-04T15:34:47.511Z,5.26
2018-12-04T15:37:15.903Z,5.24
2018-12-04T15:39:44.368Z,5.21
2018-12-04T15:42:12.827Z,5.18
2018-12-04T15:44:41.500Z,5.13
2018-12-04T15:47:09.893Z,5.09
2018-12-04T15:49:38.229Z,5.05
2018-12-04T15:52:06.728Z,5.00
2018-12-04T15:54:35.219Z,4.98
2018-12-04T15:57:03.648Z,4.91
2018-12-04T15:59:31.965Z,4.89
2018-12-04T16:02:00.333Z,4.89
2018-12-04T16:04:28.739Z,4.92
2018-12-04T16:06:57.051Z,4.90
2018-12-04T16:09:25.473Z,4.86
2018-12-04T16:11:53.776Z,4.84
2018-12-04T16:14:22.229Z,4.84
2018-12-04T16:16:50.585Z,4.78
2018-12-04T16:19:18.994Z,4.75
2018-12-04T16:21:47.343Z,4.71
2018-12-04T16:24:15.650Z,4.65
2018-12-04T16:26:43.973Z,4.63
2018-12-04T16:29:12.403Z,4.60
2018-12-04T16:31:40.716Z,4.56
2018-12-04T16:34:09.273Z,4.54
2018-12-04T16:36:37.602Z,4.53
2018-12-04T16:39:07.340Z,4.51
2018-12-04T16:41:35.664Z,4.49
2018-12-04T16:44:04.191Z,4.48
2018-12-04T16:46:32.871Z,4.45
2018-12-04T16:49:01.305Z,4.41
2018-12-04T16:51:29.600Z,4.40
2018-12-04T16:53:57.977Z,4.37
2018-12-04T16:56:26.311Z,4.34
2018-12-04T16:58:54.624Z,4.34
2018-12-04T17:01:22.984Z,4.33
2018-12-04T17:03:51.369Z,4.31
2018-12-04T17:06:19.899Z,4.29
2018-12-04T17:08:48.202Z,4.26
2018-12-04T17:11:16.544Z,4.24
2018-12-04T17:13:44.893Z,4.22
2018-12-04T17:16:13.239Z,4.20
2018-12-04T17:18:41.559Z,4.19
2018-12-04T17:21:09.920Z,4.17
2018-12-04T17:23:38.384Z,4.13
2018-12-04T17:26:06.692Z,4.12
2018-12-04T17:28:35.001Z,4.11
2018-12-04T17:31:03.329Z,4.07
2018-12-04T17:33:31.624Z,4.04
2018-12-04T17:35:59.967Z,4.00
2018-12-04T17:38:28.640Z,3.96
2018-12-04T17:40:56.946Z,3.94
2018-12-04T17:43:25.425Z,3.92
2018-12-04T17:45:53.801Z,3.88
2018-12-04T17:48:22.116Z,3.84
2018-12-04T17:50:50.448Z,3.77
2018-12-04T17:53:18.828Z,3.73
2018-12-04T17:55:47.202Z,3.69
2018-12-04T17:58:15.589Z,3.67
2018-12-04T18:00:43.922Z,3.63
2018-12-04T18:03:12.220Z,3.58
2018-12-04T18:05:40.547Z,3.55
2018-12-04T18:08:08.850Z,3.52
2018-12-04T18:10:37.294Z,3.50
2018-12-04T18:13:05.664Z,3.47
2018-12-04T18:15:34.045Z,3.42
2018-12-04T18:18:02.515Z,3.37
2018-12-04T18:20:30.823Z,3.35
2018-12-04T18:22:59.144Z,3.32
2018-12-04T18:25:27.558Z,3.29
2018-12-04T18:27:55.955Z,3.27
2018-12-04T18:30:24.524Z,3.26
2018-12-04T18:32:52.847Z,3.25
2018-12-04T18:35:21.161Z,3.24
2018-12-04T18:37:49.559Z,3.21
2018-12-04T18:40:17.977Z,3.17
2018-12-04T18:42:46.268Z,3.18
2018-12-04T18:45:14.787Z,3.16
2018-12-04T18:47:43.098Z,3.12
2018-12-04T18:50:11.541Z,3.11
2018-12-04T18:52:40.840Z,3.12
2018-12-04T18:57:56.191Z,3.08
2018-12-04T19:00:24.628Z,3.08
2018-12-04T19:02:54.432Z,3.08
2018-12-04T19:05:22.751Z,3.06
2018-12-04T19:07:51.074Z,3.05
2018-12-04T19:10:19.435Z,3.05
2018-12-04T19:12:47.853Z,3.02
2018-12-04T19:15:16.163Z,3.01
2018-12-04T19:17:44.483Z,3.02
2018-12-04T19:20:13.122Z,3.00
2018-12-04T19:22:42.123Z,2.98
2018-12-04T19:25:11.180Z,2.95
2018-12-04T19:27:39.545Z,2.93
2018-12-04T19:30:11.588Z,2.92
2018-12-04T19:32:39.968Z,2.91
2018-12-04T19:35:09.916Z,2.89
2018-12-04T19:37:38.240Z,2.88
2018-12-04T19:40:08.726Z,2.86
2018-12-04T19:42:37.085Z,2.85
2018-12-04T19:45:05.666Z,2.82
2018-12-04T19:47:34.032Z,2.81
2018-12-04T19:50:02.444Z,2.80
2018-12-04T19:52:30.757Z,2.78
2018-12-04T19:54:59.106Z,2.75
2018-12-04T19:57:27.420Z,2.72
2018-12-04T19:59:55.728Z,2.70
2018-12-04T20:02:24.047Z,2.68
2018-12-04T20:04:52.348Z,2.68
2018-12-04T20:07:20.981Z,2.68
2018-12-04T20:09:49.286Z,2.66
2018-12-04T20:12:17.701Z,2.64
2018-12-04T20:14:46.114Z,2.63
2018-12-04T20:17:14.457Z,2.65
2018-12-04T20:19:42.890Z,2.68
2018-12-04T20:22:11.216Z,2.65
2018-12-04T20:24:39.547Z,2.62
2018-12-04T20:27:08.021Z,2.62
2018-12-04T20:29:36.335Z,2.63
2018-12-04T20:32:04.717Z,2.62
2018-12-04T20:34:33.138Z,2.61
2018-12-04T20:37:01.701Z,2.60
2018-12-04T20:39:30.043Z,2.59
2018-12-04T20:41:58.366Z,2.57
2018-12-04T20:44:26.701Z,2.56
2018-12-04T20:46:54.998Z,2.57
2018-12-04T20:49:23.321Z,2.57
2018-12-04T20:51:51.650Z,2.52
2018-12-04T20:54:20.103Z,2.51
2018-12-04T20:56:48.492Z,2.50
2018-12-04T20:59:16.969Z,2.49
2018-12-04T21:01:45.580Z,2.51
2018-12-04T21:04:14.015Z,2.50
2018-12-04T21:06:42.338Z,2.53
2018-12-04T21:09:10.685Z,2.50
2018-12-04T21:11:39.016Z,2.46
2018-12-04T21:14:07.312Z,2.45
2018-12-04T21:16:35.628Z,2.46
2018-12-04T21:19:04.186Z,2.47
2018-12-04T21:21:32.488Z,2.47
2018-12-04T21:24:00.859Z,2.47
2018-12-04T21:26:36.487Z,2.48
2018-12-04T21:29:05.241Z,2.46
2018-12-04T21:31:39.989Z,2.46
2018-12-04T21:34:14.447Z,2.45
2018-12-04T21:36:48.174Z,2.43
2018-12-04T21:42:06.495Z,2.42
2018-12-04T21:44:40.385Z,2.43
2018-12-04T21:47:14.628Z,2.45
2018-12-04T21:49:42.990Z,2.46
2018-12-04T21:52:11.388Z,2.46
2018-12-04T21:54:39.932Z,2.45
2018-12-04T21:57:08.371Z,2.45
2018-12-04T21:59:36.773Z,2.45
2018-12-04T22:02:05.192Z,2.45
2018-12-04T22:04:33.622Z,2.43
2018-12-04T22:07:01.996Z,2.41
2018-12-04T22:09:30.630Z,2.41
2018-12-04T22:11:58.991Z,2.42
2018-12-04T22:14:27.296Z,2.42
2018-12-04T22:16:56.164Z,2.40
2018-12-04T22:19:24.577Z,2.37
2018-12-04T22:21:53.188Z,2.37
2018-12-04T22:24:21.668Z,2.37
2018-12-04T22:26:50.073Z,2.36
2018-12-04T22:29:18.535Z,2.35
2018-12-04T22:31:46.988Z,2.36
2018-12-04T22:36:49.876Z,2.37
2018-12-04T22:39:18.194Z,2.37
2018-12-04T22:41:46.759Z,2.38
2018-12-04T22:44:15.359Z,2.37
2018-12-04T22:46:43.712Z,2.34
2018-12-04T22:49:12.409Z,2.29
2018-12-04T22:51:40.898Z,2.27
2018-12-04T22:54:09.221Z,2.24
2018-12-04T22:56:37.567Z,2.23
2018-12-04T22:59:05.911Z,2.22
2018-12-04T23:01:39.015Z,2.21
2018-12-04T23:04:07.917Z,2.20
2018-12-04T23:06:36.488Z,2.16
2018-12-04T23:09:08.508Z,2.11
2018-12-04T23:11:37.223Z,2.09
2018-12-04T23:14:06.181Z,2.08
2018-12-04T23:16:34.798Z,2.09
2018-12-04T23:19:03.229Z,2.08
2018-12-04T23:21:31.611Z,2.08
2018-12-04T23:24:00.012Z,2.08
2018-12-04T23:26:28.340Z,2.06
2018-12-04T23:28:56.658Z,2.05
2018-12-04T23:31:24.987Z,2.03
2018-12-04T23:33:53.327Z,2.00
2018-12-04T23:36:21.646Z,1.95
2018-12-04T23:38:50.043Z,1.91
2018-12-04T23:41:18.389Z,1.90
2018-12-04T23:43:46.694Z,1.87
2018-12-04T23:46:15.184Z,1.83
2018-12-04T23:48:43.552Z,1.83
2018-12-04T23:51:11.872Z,1.80
2018-12-04T23:53:40.303Z,1.78
2018-12-04T23:56:08.600Z,1.81
2018-12-04T23:58:36.948Z,1.81
